Latest Coastal Weather Observations for Cooktown

IDQ60701

Issued at 6:51 pm EST Tuesday 17 January 2017 (issued every 10 minutes, with the page automatically refreshed every 10 minutes)

About coastal observations | Map of coastal stations | Coastal observations for QLD | Marine services | Other Formats
Station Details ID: 031209 Name: COOKTOWN AIRPORT Lat: -15.45 Lon: 145.19 Height: 4.8 m
Data from the previous 72 hours. | See also: Recent months at Cooktown
Date/Time
EST
Temp
°C
Wind Pressure Rain since
9am
mm
Weather Cloud Vis
km
Sea
Height
m
Swell
Dir  Spd
kts
Gust
kts
hPa Trend Height
m
Period
s
Dir
17/06:30pm 27.3 ESE 4 6 1010.5 - 1.8 - Partly cloudy 10 - - - -
17/06:00pm 27.7 E 7 9 1010.0 - 1.8 - Partly cloudy 10 - - - -
17/05:37pm 28.2 ESE 6 9 1009.8 - 1.8 - Partly cloudy 10 - - - -
17/05:30pm 28.3 ESE 6 9 1009.8 - 1.8 - Partly cloudy 10 - - - -
17/05:08pm 28.2 E 6 8 1009.5 - 1.8 - Partly cloudy 10 - - - -
17/05:00pm 28.2 E 7 10 1009.4 - 1.8 - Partly cloudy 10 - - - -
17/04:30pm 28.6 ESE 7 10 1009.4 - 1.8 - - 10 - - - -
17/04:13pm 28.2 E 8 10 1009.4 - 1.8 - Partly cloudy 10 - - - -
17/04:00pm 28.1 E 6 8 1009.4 - 1.8 - Partly cloudy 10 - - - -
17/03:30pm 27.7 ESE 4 5 1009.7 - 1.8 - Partly cloudy 10 - - - -
17/03:00pm 27.4 E 2 5 1010.0 - 1.8 - Mostly cloudy 10 - - - -
17/02:30pm 27.1 ENE 2 5 1010.4 - 1.8 - Partly cloudy 10 - - - -
17/02:28pm 27.1 NNE 2 5 1010.5 - 1.8 - Partly cloudy 10 - - - -
17/02:20pm 27.1 CALM 0 0 1010.5 - 1.8 - Partly cloudy 10 - - - -
17/02:00pm 26.8 N 1 3 1010.8 - 1.8 - Cloudy 10 - - - -
17/01:38pm 26.8 NNE 3 4 1011.2 - 1.8 - Partly cloudy 10 - - - -
17/01:30pm 26.9 NNE 3 4 1011.1 - 1.8 - Partly cloudy 10 - - - -
17/01:00pm 26.4 E 2 4 1011.2 - 1.8 - Partly cloudy 10 - - - -
17/12:30pm 26.3 E 4 6 1011.7 - 1.4 - Partly cloudy 10 - - - -
17/12:28pm 26.3 E 4 6 1011.8 - 1.4 - Partly cloudy 10 - - - -
17/12:00pm 26.3 SSE 3 4 1012.4 - 1.0 - Cloudy 10 - - - -
17/11:56am 26.3 SSE 3 4 1012.5 - 1.0 - Partly cloudy 10 - - - -
17/11:42am 26.4 SE 3 5 1012.8 - 1.0 - Partly cloudy 10 - - - -
17/11:30am 26.3 SSE 4 5 1012.9 - 1.0 - Partly cloudy 10 - - - -
17/11:00am 26.0 CALM 0 2 1013.2 - 0.6 - Partly cloudy 8 - - - -
17/10:30am 26.1 N 2 4 1013.3 - 0.0 - Partly cloudy 10 - - - -
17/10:20am 26.1 NW 3 4 1013.2 - 0.0 - Partly cloudy 10 - - - -
17/10:08am 26.2 W 3 4 1013.2 - 0.0 - Partly cloudy 10 - - - -
17/10:00am 26.1 W 4 6 1013.2 - 0.0 - Partly cloudy 10 - - - -
17/09:53am 25.9 W 4 5 1013.2 - 0.0 - Partly cloudy 10 - - - -
17/09:30am 25.7 W 4 4 1013.2 - 0.0 - Partly cloudy 10 - - - -
17/09:00am 25.4 W 4 6 1012.5 R 5.8 Fine Mostly cloudy 30 - - - -
17/08:30am 25.4 NW 4 5 1012.4 - 5.8 - - 10 - - - -
17/08:00am 25.0 CALM 0 3 1012.1 - 5.8 - - 10 - - - -
17/07:30am 24.8 CALM 0 0 1011.7 - 5.8 - - 10 - - - -
17/07:00am 24.6 CALM 0 0 1011.5 - 5.8 - Partly cloudy 10 - - - -
17/06:30am 24.2 CALM 0 0 1011.5 - 5.8 - - - - - - -
17/06:00am 24.0 CALM 0 0 1010.7 - 5.8 - - 10 - - - -
17/05:30am 24.2 CALM 0 2 1010.4 - 5.8 - - 10 - - - -
17/05:00am 24.2 WNW 3 4 1010.3 - 5.8 - - 10 - - - -
17/04:30am 24.1 W 3 4 1009.8 - 5.6 - - 10 - - - -
17/04:00am 24.2 NW 2 5 1009.9 - 5.6 - - 10 - - - -
17/03:30am 24.4 WNW 5 6 1009.9 - 5.6 - Partly cloudy 10 - - - -
17/03:00am 24.5 SW 4 5 1010.1 - 5.6 - - 10 - - - -
17/02:30am 24.5 SSW 3 5 1010.4 - 5.6 - - 10 - - - -
17/02:00am 24.5 SSE 4 6 1010.4 - 5.6 - - 10 - - - -
17/01:30am 24.7 WSW 4 7 1010.1 - 5.6 - Partly cloudy 10 - - - -
17/01:00am 24.8 WSW 1 4 1010.8 - 5.6 - Partly cloudy 10 - - - -
17/12:30am 24.7 CALM 0 0 1011.2 - 5.6 - Partly cloudy 10 - - - -
17/12:00am 24.8 W 3 5 1010.9 - 5.4 - Cloudy 10 - - - -
 
Date/Time
EST
Temp
°C
Wind Pressure Rain since
9am
mm
Weather Cloud Vis
km
Sea
Height
m
Swell
Dir  Spd
kts
Gust
kts
hPa Trend Height
m
Period
s
Dir
16/11:48pm 25.0 ENE 3 6 1010.9 - 5.4 - Partly cloudy 6 - - - -
16/11:47pm 25.0 ENE 3 7 1010.9 - 5.4 - Partly cloudy 6 - - - -
16/11:37pm 25.3 N 3 9 1011.2 - 4.8 - Partly cloudy 5 - - - -
16/11:30pm 25.7 N 3 7 1011.3 - 4.6 - Partly cloudy 10 - - - -
16/11:00pm 25.6 W 4 5 1010.9 - 3.8 - Partly cloudy 10 - - - -
16/10:54pm 25.6 W 4 5 1011.1 - 3.8 - Partly cloudy 10 - - - -
16/10:30pm 25.8 NNW 2 5 1011.0 - 3.8 - Partly cloudy 10 - - - -
16/10:26pm 25.9 CALM 0 5 1011.0 - 3.8 - Partly cloudy 10 - - - -
16/10:00pm 26.0 NNW 4 9 1010.9 - 2.8 - Partly cloudy 2 - - - -
16/09:50pm 26.3 NE 9 14 1010.9 - 0.8 - Partly cloudy 5 - - - -
16/09:00pm 27.5 E 5 6 1010.3 - 0.2 - Partly cloudy 10 - - - -
16/08:30pm 27.9 E 5 7 1010.4 - 0.2 - Partly cloudy 10 - - - -
16/08:00pm 28.0 ENE 4 5 1010.1 - 0.2 - Partly cloudy 10 - - - -
16/07:30pm 27.9 E 4 6 1009.7 - 0.2 - Partly cloudy 10 - - - -
16/07:00pm 28.2 E 6 7 1009.3 - 0.2 - Partly cloudy 10 - - - -
16/06:30pm 28.7 E 6 8 1008.9 - 0.2 - Partly cloudy 10 - - - -
16/06:00pm 29.0 E 8 10 1008.0 - 0.2 - Partly cloudy 10 - - - -
16/05:30pm 29.3 E 8 11 1007.6 - 0.2 - - 10 - - - -
16/05:00pm 29.2 E 9 12 1007.4 - 0.2 - Partly cloudy 10 - - - -
16/04:30pm 29.3 E 8 12 1007.1 - 0.2 - Partly cloudy 10 - - - -
16/04:00pm 29.3 E 10 13 1007.2 - 0.2 - Partly cloudy 10 - - - -
16/03:30pm 29.4 ENE 8 11 1007.2 - 0.2 - Partly cloudy 10 - - - -
16/03:00pm 29.7 ENE 6 8 1007.5 - 0.2 - Partly cloudy 10 - - - -
16/02:30pm 29.8 E 12 17 1007.5 - 0.2 - Partly cloudy 10 - - - -
16/02:00pm 30.6 E 12 17 1007.5 - 0.2 - - 10 - - - -
16/01:30pm 31.3 E 12 19 1007.8 - 0.2 - - 10 - - - -
16/01:00pm 30.9 E 12 16 1008.2 - 0.2 - - 10 - - - -
16/12:30pm 30.5 E 10 13 1008.5 - 0.2 - - 10 - - - -
16/12:00pm 30.2 E 10 15 1008.7 - 0.2 - - 10 - - - -
16/11:30am 31.1 E 5 8 1008.7 - 0.2 - Partly cloudy 10 - - - -
16/11:00am 30.2 E 6 10 1008.9 - 0.2 - Partly cloudy 10 - - - -
16/10:30am 29.9 SE 5 8 1009.0 - 0.2 - - 10 - - - -
16/10:00am 29.1 ESE 5 8 1009.1 - 0.2 - Partly cloudy 10 - - - -
16/09:44am 29.1 E 6 8 1009.2 - 0.0 - Partly cloudy 10 - - - -
16/09:30am 28.6 E 8 11 1009.3 - 0.0 - Partly cloudy 10 - - - -
16/09:11am 28.1 E 4 7 1009.3 - 0.0 - Partly cloudy 10 - - - -
16/09:00am 28.0 NW 2 4 1009.1 R 32.4 Fine Partly cloudy 40 - - - -
16/08:30am 27.1 CALM 0 3 1009.2 - 32.4 - - 10 - - - -
16/08:00am 25.6 W 1 3 1009.3 - 32.4 - Partly cloudy 10 - - - -
16/07:56am 25.5 W 2 3 1009.3 - 32.4 - Partly cloudy 10 - - - -
16/07:36am 25.0 WSW 3 4 1009.2 - 32.4 - Partly cloudy 10 - - - -
16/07:30am 25.0 W 3 4 1009.1 - 32.4 - Partly cloudy 10 - - - -
16/07:00am 24.6 W 2 3 1008.4 - 32.4 - Partly cloudy 10 - - - -
16/06:45am 24.4 W 3 4 1008.1 - 32.4 - Partly cloudy 10 - - - -
16/06:30am 24.3 W 3 4 1007.9 - 32.4 - Partly cloudy 10 - - - -
16/06:22am 24.3 W 3 5 1007.8 - 32.4 - Partly cloudy 10 - - - -
16/06:00am 24.2 WNW 5 6 1007.3 - 32.4 - Mostly clear 10 - - - -
16/05:30am 24.3 SSE 3 4 1007.3 - 32.4 - Partly cloudy 10 - - - -
16/05:00am 24.2 S 4 6 1007.0 - 32.4 - Partly cloudy 10 - - - -
16/04:30am 24.3 SW 1 4 1007.4 - 32.4 - - 10 - - - -
16/04:00am 24.4 CALM 0 0 1007.5 - 32.4 - Partly cloudy 10 - - - -
16/03:53am 24.3 CALM 0 3 1007.5 - 32.4 - Partly cloudy 10 - - - -
16/03:30am 24.5 CALM 0 0 1008.0 - 32.4 - Cloudy 10 - - - -
16/03:12am 24.4 SE 3 4 1008.2 - 32.4 - Partly cloudy 10 - - - -
16/03:00am 24.6 WSW 1 4 1007.9 - 32.4 - - 10 - - - -
16/02:30am 24.7 WSW 3 4 1007.9 - 32.2 - Partly cloudy 10 - - - -
16/02:00am 24.7 CALM 0 0 1008.2 - 32.2 - Partly cloudy 10 - - - -
16/01:30am 24.6 CALM 0 0 1008.4 - 32.2 - - 10 - - - -
16/01:00am 24.8 CALM 0 0 1008.5 - 32.2 - - 10 - - - -
16/12:30am 24.7 WSW 1 3 1008.8 - 32.2 - Partly cloudy 10 - - - -
16/12:00am 25.2 SSW 5 10 1009.3 - 32.2 - Mostly cloudy 10 - - - -
 
Date/Time
EST
Temp
°C
Wind Pressure Rain since
9am
mm
Weather Cloud Vis
km
Sea
Height
m
Swell
Dir  Spd
kts
Gust
kts
hPa Trend Height
m
Period
s
Dir
15/11:30pm 25.7 SSW 5 8 1009.7 - 32.0 - Partly cloudy 10 - - - -
15/11:00pm 25.7 SW 2 4 1009.7 - 31.8 - Partly cloudy 10 - - - -
15/10:30pm 25.3 CALM 0 0 1009.6 - 31.6 - Partly cloudy 9 - - - -
15/10:00pm 25.5 W 3 5 1009.6 - 31.0 - Partly cloudy 10 - - - -
15/09:30pm 26.3 NNW 4 5 1008.9 - 31.0 - Partly cloudy 10 - - - -
15/09:00pm 26.2 NW 1 4 1008.6 - 31.0 - Mostly cloudy 10 - - - -
15/08:30pm 26.6 NW 2 4 1008.1 - 31.0 - - 10 - - - -
15/08:00pm 27.2 NW 2 6 1007.8 - 31.0 - Partly cloudy 10 - - - -
15/07:30pm 27.2 CALM 0 0 1007.4 - 31.0 - Partly cloudy 10 - - - -
15/07:00pm 27.5 N 2 4 1007.2 - 31.0 - - 10 - - - -
15/06:30pm 27.9 NNE 4 5 1006.9 - 31.0 - - 10 - - - -
15/06:00pm 28.3 SE 3 6 1006.7 - 31.0 - Mostly clear 10 - - - -
15/05:30pm 28.2 ENE 1 3 1006.9 - 31.0 - Partly cloudy 10 - - - -
15/05:00pm 27.3 N 1 4 1006.5 - 31.0 - - 10 - - - -
15/04:30pm 26.4 NE 4 5 1006.4 - 31.0 - Partly cloudy 10 - - - -
15/04:18pm 26.1 NNE 3 5 1006.4 - 31.0 - Partly cloudy 10 - - - -
15/04:00pm 25.5 N 5 7 1006.6 - 30.8 - Partly cloudy 3 - - - -
15/03:54pm 25.4 N 7 9 1006.6 - 29.8 - Partly cloudy 5 - - - -
15/03:50pm 25.3 NNW 7 11 1006.7 - 29.4 - Partly cloudy 7 - - - -
15/03:30pm 24.7 NE 12 26 1006.3 - 28.2 - Partly cloudy 0.6 - - - -
15/03:23pm 25.0 E 15 26 1006.4 - 24.4 - Partly cloudy 0.3 - - - -
15/03:18pm 26.5 SW 9 18 1006.8 - 15.0 - Partly cloudy 0.3 - - - -
15/03:08pm 25.8 WSW 8 15 1006.5 - 0.6 - Partly cloudy 5 - - - -
15/03:00pm 30.0 SSW 3 10 1006.2 - 0.0 - Cloudy 10 - - - -
15/02:30pm 31.7 E 12 15 1006.3 - 0.0 - - 10 - - - -
15/02:00pm 32.3 E 12 16 1006.3 - 0.0 - - 10 - - - -
15/01:30pm 32.4 E 11 15 1007.0 - 0.0 - - 10 - - - -
15/01:00pm 31.9 E 12 15 1007.3 - 0.0 - - 10 - - - -
15/12:30pm 31.8 E 10 14 1007.6 - 0.0 - - 10 - - - -
15/12:00pm 32.6 ENE 7 12 1007.7 - 0.0 - - 10 - - - -
15/11:30am 32.7 N 3 6 1007.8 - 0.0 - - 10 - - - -
15/11:00am 32.6 SW 4 6 1008.1 - 0.0 - - 10 - - - -
15/10:30am 31.2 ENE 3 8 1008.5 - 0.0 - Partly cloudy 10 - - - -
15/10:00am 31.0 NNW 3 5 1008.9 - 0.0 - Partly cloudy 10 - - - -
15/09:30am 30.2 N 4 7 1009.1 - 0.0 - Partly cloudy 10 - - - -
15/09:00am 29.1 W 4 7 1009.3 - 0.0 - - 10 - - - -
15/08:30am 28.5 W 3 5 1009.5 - 0.0 - - 10 - - - -
15/08:00am 27.6 CALM 0 3 1009.5 - 0.0 - - 10 - - - -
15/07:30am 26.9 CALM 0 3 1009.7 - 0.0 - - 10 - - - -
15/07:00am 26.0 SW 4 5 1009.5 - 0.0 - - 10 - - - -
15/06:30am 25.5 CALM 0 0 1009.3 - 0.0 - - 10 - - - -
15/06:00am 25.5 CALM 0 0 1008.6 - 0.0 - - 10 - - - -
15/05:30am 25.6 CALM 0 0 1008.3 - 0.0 - - 10 - - - -
15/05:00am 25.6 CALM 0 0 1008.0 - 0.0 - - 10 - - - -
15/04:30am 25.5 CALM 0 0 1007.5 - 0.0 - - 10 - - - -
15/04:00am 25.6 NW 4 5 1007.5 - 0.0 - - 10 - - - -
15/03:30am 25.9 WSW 2 3 1007.8 - 0.0 - - 10 - - - -
15/03:00am 25.8 W 4 6 1008.0 - 0.0 - - 10 - - - -
15/02:30am 25.5 NW 4 6 1008.1 - 0.0 - - 10 - - - -
15/02:00am 25.8 WNW 4 6 1008.0 - 0.0 - - 10 - - - -
15/01:30am 26.0 CALM 0 0 1008.4 - 0.0 - Partly cloudy 10 - - - -
15/01:00am 25.9 CALM 0 0 1008.6 - 0.0 - - 9 - - - -
15/12:30am 26.1 WNW 3 3 1009.2 - 0.0 - Partly cloudy 10 - - - -
15/12:00am 26.3 WNW 1 6 1009.7 - 0.0 - - 10 - - - -
 
Date/Time
EST
Temp
°C
Wind Pressure Rain since
9am
mm
Weather Cloud Vis
km
Sea
Height
m
Swell
Dir  Spd
kts
Gust
kts
hPa Trend Height
m
Period
s
Dir
14/11:30pm 26.6 WNW 2 3 1010.2 - 0.0 - - 10 - - - -
14/11:00pm 26.7 CALM 0 4 1010.3 - 0.0 - Partly cloudy 10 - - - -
14/10:30pm 26.9 CALM 0 0 1010.2 - 0.0 - - 10 - - - -
14/10:00pm 27.2 W 1 4 1010.2 - 0.0 - - 10 - - - -
14/09:30pm 27.5 WNW 1 4 1009.6 - 0.0 - Partly cloudy 10 - - - -
14/09:00pm 27.8 N 3 5 1009.3 - 0.0 - - 10 - - - -
14/08:30pm 27.9 N 4 5 1009.1 - 0.0 - - 10 - - - -
14/08:00pm 27.9 CALM 0 0 1008.9 - 0.0 - Partly cloudy 10 - - - -
14/07:30pm 28.4 N 4 5 1008.6 - 0.0 - Partly cloudy 10 - - - -
14/07:00pm 28.6 ENE 5 6 1008.6 - 0.0 - - 10 - - - -

Other Formats:

Comma delimited format used in spreadsheet applications
http://www.bom.gov.au/fwo/IDQ60701/IDQ60701.95283.axf

JavaScript Object Notation format (JSON) in row-major order
http://www.bom.gov.au/fwo/IDQ60701/IDQ60701.95283.json